Ana Sayfa
METAR-TAF:

METAR-TAF

Havaalanları :

Hagerstown, Maryland, Amerika Birleşik Devletleri

Enlem: 39-42-21N, Boylam: 077-43-48W, yükseklik: 214 m

Güncel hava durumu gözlemi

Rapor saat 07:53 UTC de 13 dakika önce yapıldı.
Rüzgar doğu/kuzeydoğudan 5 kt
Sıcaklık 12°C
Nem 94%
Basınç 1015 hPa
Görüş mesafesi: 6.4 km
3700 ft yükseklikte parçalı çok bulutlu
7000 ft yükseklikte çok bulutlu
hafif yağmur, Pus

METAR: KHGR 280753Z AUTO 06005KT 4SM -RA BR BKN037 OVC070 12/11 A2998 RMK AO2 LTG DSNT SE AND W RAB04 SLP160 P0016 T01220111

Saat: 04:06 (08:06 UTC)


TAF: eksik

4.000'den fazla havaalanı için hava durumu gözlemleri ve tahminleri (METAR ve TAF raporları).

Kullanılabilir istasyonlar harita üzerinde sarı ve kırmızı noktalarla gösterilir.

İstasyonun adını görmek için fareyi noktanın üzerinde gezdirin.

Sonrasında hava gözlem ve tahminlerini görmek için tıklayın.

Haritayı değiştirmek için: yaklaştırmak için siyah artı işaretli yeşil düğmeye ve uzaklaştırmak için de eksi işaretli düğmeye hızla tıklayın; bitişik haritalar için yeşil okları kullanın.


METAR-TAF: